Tarrants, Missouri
Current Conditions -  °F | °C
As of 4:35 AM on Monday 22 Dec 2014 (Local Time) from KPPQ Reporting Station
Overcast Overcast  
Wind Chill:   Ceiling: 5000
Heat Index:   Visibility: 10mi
Dew Point:   Wind: 8mph
Humidity: 79%   Direction: 120°ESE
Pressure: 29.82"   Gusts: NA
Location:  39.321°N, 91.1912°W
Report Text: KPPQ 221035Z AUTO 12007KT 10SM SCT040 BKN050 OVC075 04/01 A2982 RMK AO2 T00410007
Loading
Personal Weather Stations






























Interactive Weather Map New forecast layout! Learn more

10-Day Weather Forecast

Advertisements
Track Severe Weather on mobile